To NAV CANADA Home Page Login to a new session Search on AWWS site Disclaimer Vers la page française équivalente Tips FAQ What's new on the site To the Forecasts and Observations / NOTAM section To "File a Flight Plan" website Publications and other links Update of the User's profile FIC Telephone Numbers My Weather Data Folder Route Weather Data Regional Weather Data Local Weather Data To the Forecasts and Observations / NOTAM section
Request Generated 10/19/2018 at 15:39:08 UTC . Weather information available at that time is displayed.

METAR/TAF

DEER LAKE/NL    

SPECI CYDF 191519Z 04006KT 15SM VCSH SCT018 BKN050 03/01 A2971 RMK CU4SC3 SLP062=
METAR CYDF 191500Z 02006KT 15SM -SHRA BKN020 OVC048 03/01 A2970 RMK SC5SC3 CVCTV CLD EMBD SLP060=
METAR CYDF 191400Z 02006KT 12SM -SHRA FEW013 BKN019 OVC040 03/01 A2968 RMK CU2SC5SC1 CIG RGD SLP052=
SPECI CYDF 191350Z 04007KT 12SM -SHRA FEW013 BKN019 OVC040 04/01 A2967 RMK CU2SC5SC1 SLP050=
METAR CYDF 191300Z 03006KT 8SM -RA FEW010 BKN019 OVC026 03/01 A2965 RMK SF2SC4SC2 -RA INTMT SLP043=

TAF CYDF 191338Z 1914/2002 03006KT 5SM -RA BR OVC015 TEMPO 1914/1916
P6SM -RA SCT015 OVC025
FM191600 VRB03KT P6SM BKN025
FM192200 07005KT 6SM -SN OVC025 TEMPO 1922/1924 2SM -RASN BR
OVC015
FM200000 18005KT 6SM -RASN BR OVC025 TEMPO 2000/2002 4SM -SNDZ BR
OVC015
RMK NXT FCST BY 192000Z=
Your time UTC time
Weather data provided by Environment Canada and NAV CANADA